sensor_id;sensor_type;location;lat;lon;timestamp;pressure;altitude;pressure_sealevel;temperature;humidity
45275;BME280;31019;43.780;25.948;2023-02-13T00:00:45;103259.00;;;-4.39;100.00
45275;BME280;31019;43.780;25.948;2023-02-13T00:03:12;103262.31;;;-4.34;100.00
45275;BME280;31019;43.780;25.948;2023-02-13T00:05:39;103254.16;;;-4.50;100.00
45275;BME280;31019;43.780;25.948;2023-02-13T00:08:06;103258.59;;;-4.53;100.00
45275;BME280;31019;43.780;25.948;2023-02-13T00:10:32;103260.09;;;-4.46;100.00
45275;BME280;31019;43.780;25.948;2023-02-13T00:12:59;103263.25;;;-4.37;100.00
45275;BME280;31019;43.780;25.948;2023-02-13T00:15:27;103262.13;;;-4.28;100.00
45275;BME280;31019;43.780;25.948;2023-02-13T00:17:54;103256.22;;;-4.33;100.00
45275;BME280;31019;43.780;25.948;2023-02-13T00:20:20;103257.84;;;-4.29;100.00
45275;BME280;31019;43.780;25.948;2023-02-13T00:22:47;103253.34;;;-4.24;100.00
45275;BME280;31019;43.780;25.948;2023-02-13T00:25:14;103260.81;;;-4.41;100.00
45275;BME280;31019;43.780;25.948;2023-02-13T00:27:41;103269.16;;;-4.03;100.00
45275;BME280;31019;43.780;25.948;2023-02-13T00:30:08;103277.25;;;-3.59;100.00
45275;BME280;31019;43.780;25.948;2023-02-13T00:32:36;103278.38;;;-3.41;100.00
45275;BME280;31019;43.780;25.948;2023-02-13T00:35:03;103263.84;;;-3.22;100.00
45275;BME280;31019;43.780;25.948;2023-02-13T00:37:32;103269.25;;;-3.28;100.00
45275;BME280;31019;43.780;25.948;2023-02-13T00:39:58;103270.28;;;-3.32;100.00
45275;BME280;31019;43.780;25.948;2023-02-13T00:42:25;103273.09;;;-3.38;100.00
45275;BME280;31019;43.780;25.948;2023-02-13T00:44:52;103275.69;;;-3.38;100.00
45275;BME280;31019;43.780;25.948;2023-02-13T00:47:19;103269.09;;;-3.24;100.00
45275;BME280;31019;43.780;25.948;2023-02-13T00:49:48;103263.50;;;-3.13;100.00
45275;BME280;31019;43.780;25.948;2023-02-13T00:52:14;103265.09;;;-3.09;100.00
45275;BME280;31019;43.780;25.948;2023-02-13T00:54:41;103263.25;;;-3.30;100.00
45275;BME280;31019;43.780;25.948;2023-02-13T00:57:08;103272.97;;;-3.35;100.00
45275;BME280;31019;43.780;25.948;2023-02-13T00:59:34;103269.09;;;-3.49;100.00
45275;BME280;31019;43.780;25.948;2023-02-13T01:02:01;103267.50;;;-3.28;100.00
45275;BME280;31019;43.780;25.948;2023-02-13T01:04:28;103268.13;;;-3.21;100.00
45275;BME280;31019;43.780;25.948;2023-02-13T01:06:56;103265.50;;;-3.44;100.00
45275;BME280;31019;43.780;25.948;2023-02-13T01:09:23;103269.25;;;-3.53;100.00
45275;BME280;31019;43.780;25.948;2023-02-13T01:11:50;103278.22;;;-3.37;100.00
45275;BME280;31019;43.780;25.948;2023-02-13T01:14:17;103276.72;;;-3.19;100.00
45275;BME280;31019;43.780;25.948;2023-02-13T01:16:44;103268.09;;;-3.19;100.00
45275;BME280;31019;43.780;25.948;2023-02-13T01:19:10;103264.44;;;-3.14;100.00
45275;BME280;31019;43.780;25.948;2023-02-13T01:21:37;103260.19;;;-3.16;100.00
45275;BME280;31019;43.780;25.948;2023-02-13T01:24:06;103256.84;;;-2.73;100.00
45275;BME280;31019;43.780;25.948;2023-02-13T01:26:32;103256.22;;;-3.03;100.00
45275;BME280;31019;43.780;25.948;2023-02-13T01:28:59;103253.63;;;-3.03;100.00
45275;BME280;31019;43.780;25.948;2023-02-13T01:31:26;103241.78;;;-3.12;100.00
45275;BME280;31019;43.780;25.948;2023-02-13T01:33:55;103252.41;;;-2.93;100.00
45275;BME280;31019;43.780;25.948;2023-02-13T01:36:23;103237.69;;;-2.94;100.00
45275;BME280;31019;43.780;25.948;2023-02-13T01:38:52;103250.22;;;-2.82;100.00
45275;BME280;31019;43.780;25.948;2023-02-13T01:41:21;103243.81;;;-2.71;100.00
45275;BME280;31019;43.780;25.948;2023-02-13T01:43:51;103247.00;;;-2.65;100.00
45275;BME280;31019;43.780;25.948;2023-02-13T01:46:22;103244.78;;;-2.76;100.00
45275;BME280;31019;43.780;25.948;2023-02-13T01:48:52;103252.00;;;-2.82;100.00
45275;BME280;31019;43.780;25.948;2023-02-13T01:51:23;103245.47;;;-2.70;100.00
45275;BME280;31019;43.780;25.948;2023-02-13T01:53:53;103250.75;;;-2.72;100.00
45275;BME280;31019;43.780;25.948;2023-02-13T01:56:27;103248.94;;;-2.70;100.00
45275;BME280;31019;43.780;25.948;2023-02-13T01:58:57;103245.13;;;-2.61;100.00
45275;BME280;31019;43.780;25.948;2023-02-13T02:01:26;103242.59;;;-2.63;100.00
45275;BME280;31019;43.780;25.948;2023-02-13T02:03:55;103248.94;;;-2.70;100.00
45275;BME280;31019;43.780;25.948;2023-02-13T02:06:27;103246.22;;;-2.67;100.00
45275;BME280;31019;43.780;25.948;2023-02-13T02:09:05;103251.13;;;-2.59;100.00
45275;BME280;31019;43.780;25.948;2023-02-13T02:11:40;103261.09;;;-2.47;100.00
45275;BME280;31019;43.780;25.948;2023-02-13T02:14:08;103262.28;;;-2.34;100.00
45275;BME280;31019;43.780;25.948;2023-02-13T02:16:35;103251.09;;;-2.36;100.00
45275;BME280;31019;43.780;25.948;2023-02-13T02:19:03;103251.03;;;-2.34;100.00
45275;BME280;31019;43.780;25.948;2023-02-13T02:22:13;103248.63;;;-2.17;100.00
45275;BME280;31019;43.780;25.948;2023-02-13T02:28:22;103249.22;;;-2.32;100.00
45275;BME280;31019;43.780;25.948;2023-02-13T02:31:09;103247.59;;;-2.35;100.00
45275;BME280;31019;43.780;25.948;2023-02-13T02:33:49;103243.78;;;-2.48;100.00
45275;BME280;31019;43.780;25.948;2023-02-13T02:36:31;103243.81;;;-2.49;100.00
45275;BME280;31019;43.780;25.948;2023-02-13T02:39:10;103255.50;;;-2.38;100.00
45275;BME280;31019;43.780;25.948;2023-02-13T02:41:56;103249.09;;;-2.29;100.00
45275;BME280;31019;43.780;25.948;2023-02-13T02:44:32;103251.72;;;-2.29;100.00
45275;BME280;31019;43.780;25.948;2023-02-13T02:47:09;103246.44;;;-2.27;100.00
45275;BME280;31019;43.780;25.948;2023-02-13T02:50:08;103246.75;;;-2.35;100.00
45275;BME280;31019;43.780;25.948;2023-02-13T02:52:43;103242.53;;;-2.39;100.00
45275;BME280;31019;43.780;25.948;2023-02-13T02:55:21;103237.41;;;-2.63;100.00
45275;BME280;31019;43.780;25.948;2023-02-13T02:57:58;103233.59;;;-2.54;100.00
45275;BME280;31019;43.780;25.948;2023-02-13T03:00:48;103234.81;;;-2.63;100.00
45275;BME280;31019;43.780;25.948;2023-02-13T03:03:34;103244.53;;;-2.68;100.00
45275;BME280;31019;43.780;25.948;2023-02-13T03:09:48;103246.28;;;-2.68;100.00
45275;BME280;31019;43.780;25.948;2023-02-13T03:13:11;103242.09;;;-2.72;100.00
45275;BME280;31019;43.780;25.948;2023-02-13T03:16:16;103240.97;;;-2.89;100.00
45275;BME280;31019;43.780;25.948;2023-02-13T03:19:19;103236.22;;;-2.78;100.00
45275;BME280;31019;43.780;25.948;2023-02-13T03:22:36;103244.78;;;-2.76;100.00
45275;BME280;31019;43.780;25.948;2023-02-13T03:25:24;103244.06;;;-2.79;100.00
45275;BME280;31019;43.780;25.948;2023-02-13T03:28:18;103239.31;;;-2.91;100.00
45275;BME280;31019;43.780;25.948;2023-02-13T03:31:29;103239.31;;;-3.15;100.00
45275;BME280;31019;43.780;25.948;2023-02-13T03:34:13;103234.75;;;-3.08;100.00
45275;BME280;31019;43.780;25.948;2023-02-13T03:37:07;103236.47;;;-3.09;100.00
45275;BME280;31019;43.780;25.948;2023-02-13T03:40:06;103243.16;;;-3.25;100.00
45275;BME280;31019;43.780;25.948;2023-02-13T03:43:00;103241.94;;;-3.40;100.00
45275;BME280;31019;43.780;25.948;2023-02-13T03:45:58;103248.16;;;-3.44;100.00
45275;BME280;31019;43.780;25.948;2023-02-13T03:49:03;103251.09;;;-3.05;100.00
45275;BME280;31019;43.780;25.948;2023-02-13T03:51:55;103253.09;;;-3.13;100.00
45275;BME280;31019;43.780;25.948;2023-02-13T03:54:46;103254.81;;;-3.37;100.00
45275;BME280;31019;43.780;25.948;2023-02-13T03:57:36;103250.91;;;-3.49;100.00
45275;BME280;31019;43.780;25.948;2023-02-13T04:00:36;103243.34;;;-3.81;100.00
45275;BME280;31019;43.780;25.948;2023-02-13T04:03:13;103246.31;;;-3.67;100.00
45275;BME280;31019;43.780;25.948;2023-02-13T04:05:54;103250.13;;;-4.04;100.00
45275;BME280;31019;43.780;25.948;2023-02-13T04:08:30;103246.50;;;-3.98;100.00
45275;BME280;31019;43.780;25.948;2023-02-13T04:11:04;103241.72;;;-3.84;100.00
45275;BME280;31019;43.780;25.948;2023-02-13T04:17:03;103241.19;;;-3.95;100.00
45275;BME280;31019;43.780;25.948;2023-02-13T04:19:39;103245.34;;;-4.16;100.00
45275;BME280;31019;43.780;25.948;2023-02-13T04:22:18;103240.78;;;-4.09;100.00
45275;BME280;31019;43.780;25.948;2023-02-13T04:25:00;103238.84;;;-3.76;100.00
45275;BME280;31019;43.780;25.948;2023-02-13T04:27:36;103248.75;;;-4.14;100.00
45275;BME280;31019;43.780;25.948;2023-02-13T04:30:09;103236.47;;;-4.37;100.00
45275;BME280;31019;43.780;25.948;2023-02-13T04:32:44;103241.72;;;-4.12;100.00
45275;BME280;31019;43.780;25.948;2023-02-13T04:35:32;103247.41;;;-4.27;100.00
45275;BME280;31019;43.780;25.948;2023-02-13T04:38:02;103250.19;;;-4.33;100.00
45275;BME280;31019;43.780;25.948;2023-02-13T04:40:34;103245.06;;;-4.35;100.00
45275;BME280;31019;43.780;25.948;2023-02-13T04:43:30;103255.75;;;-4.46;100.00
45275;BME280;31019;43.780;25.948;2023-02-13T04:46:14;103257.88;;;-4.58;100.00
45275;BME280;31019;43.780;25.948;2023-02-13T04:48:48;103254.53;;;-4.62;100.00
45275;BME280;31019;43.780;25.948;2023-02-13T04:51:29;103257.22;;;-4.65;100.00
45275;BME280;31019;43.780;25.948;2023-02-13T04:54:12;103251.47;;;-4.75;100.00
45275;BME280;31019;43.780;25.948;2023-02-13T05:00:13;103259.41;;;-4.81;100.00
45275;BME280;31019;43.780;25.948;2023-02-13T05:03:01;103254.53;;;-4.93;100.00
45275;BME280;31019;43.780;25.948;2023-02-13T05:05:34;103267.69;;;-4.99;100.00
45275;BME280;31019;43.780;25.948;2023-02-13T05:08:03;103260.78;;;-4.99;100.00
45275;BME280;31019;43.780;25.948;2023-02-13T05:10:53;103268.50;;;-4.97;100.00
45275;BME280;31019;43.780;25.948;2023-02-13T05:13:35;103276.91;;;-4.89;100.00
45275;BME280;31019;43.780;25.948;2023-02-13T05:16:05;103278.84;;;-4.96;100.00
45275;BME280;31019;43.780;25.948;2023-02-13T05:18:40;103262.56;;;-5.01;100.00
45275;BME280;31019;43.780;25.948;2023-02-13T05:21:14;103265.88;;;-4.96;100.00
45275;BME280;31019;43.780;25.948;2023-02-13T05:24:08;103278.53;;;-4.85;100.00
45275;BME280;31019;43.780;25.948;2023-02-13T05:26:50;103276.34;;;-5.00;100.00
45275;BME280;31019;43.780;25.948;2023-02-13T05:29:25;103295.81;;;-4.86;100.00
45275;BME280;31019;43.780;25.948;2023-02-13T05:32:19;103294.16;;;-4.88;100.00
45275;BME280;31019;43.780;25.948;2023-02-13T05:35:08;103304.03;;;-5.01;100.00
45275;BME280;31019;43.780;25.948;2023-02-13T05:37:46;103291.97;;;-5.02;100.00
45275;BME280;31019;43.780;25.948;2023-02-13T05:40:26;103299.94;;;-5.10;100.00
45275;BME280;31019;43.780;25.948;2023-02-13T05:43:05;103310.22;;;-5.07;100.00
45275;BME280;31019;43.780;25.948;2023-02-13T05:45:45;103309.28;;;-5.04;100.00
45275;BME280;31019;43.780;25.948;2023-02-13T05:48:26;103309.22;;;-5.01;100.00
45275;BME280;31019;43.780;25.948;2023-02-13T05:51:01;103299.84;;;-5.05;100.00
45275;BME280;31019;43.780;25.948;2023-02-13T05:54:10;103301.69;;;-4.79;100.00
45275;BME280;31019;43.780;25.948;2023-02-13T05:56:53;103307.63;;;-4.75;100.00
45275;BME280;31019;43.780;25.948;2023-02-13T05:59:39;103301.22;;;-4.62;100.00
45275;BME280;31019;43.780;25.948;2023-02-13T06:02:16;103302.00;;;-4.60;100.00
45275;BME280;31019;43.780;25.948;2023-02-13T06:04:51;103302.44;;;-4.44;100.00
45275;BME280;31019;43.780;25.948;2023-02-13T06:07:29;103313.19;;;-4.28;100.00
45275;BME280;31019;43.780;25.948;2023-02-13T06:10:13;103312.25;;;-4.26;100.00
45275;BME280;31019;43.780;25.948;2023-02-13T06:12:47;103321.81;;;-4.00;100.00
45275;BME280;31019;43.780;25.948;2023-02-13T06:15:26;103317.31;;;-3.66;100.00
45275;BME280;31019;43.780;25.948;2023-02-13T06:18:01;103325.50;;;-3.52;100.00
45275;BME280;31019;43.780;25.948;2023-02-13T06:20:40;103314.19;;;-3.25;100.00
45275;BME280;31019;43.780;25.948;2023-02-13T06:23:17;103319.84;;;-2.88;100.00
45275;BME280;31019;43.780;25.948;2023-02-13T06:26:03;103313.13;;;-2.47;100.00
45275;BME280;31019;43.780;25.948;2023-02-13T06:28:52;103309.34;;;-2.16;100.00
45275;BME280;31019;43.780;25.948;2023-02-13T06:31:21;103307.47;;;-1.91;100.00
45275;BME280;31019;43.780;25.948;2023-02-13T06:33:59;103304.28;;;-1.75;100.00
45275;BME280;31019;43.780;25.948;2023-02-13T06:36:47;103308.13;;;-1.43;100.00
45275;BME280;31019;43.780;25.948;2023-02-13T06:39:38;103305.31;;;-1.18;100.00
45275;BME280;31019;43.780;25.948;2023-02-13T06:46:03;103300.28;;;-0.63;100.00
45275;BME280;31019;43.780;25.948;2023-02-13T06:48:39;103294.59;;;-0.33;100.00
45275;BME280;31019;43.780;25.948;2023-02-13T06:51:18;103296.63;;;-0.21;100.00
45275;BME280;31019;43.780;25.948;2023-02-13T06:57:10;103293.22;;;0.48;100.00
45275;BME280;31019;43.780;25.948;2023-02-13T07:03:36;103279.69;;;1.08;100.00
45275;BME280;31019;43.780;25.948;2023-02-13T07:06:31;103276.59;;;1.33;100.00
45275;BME280;31019;43.780;25.948;2023-02-13T07:09:01;103275.34;;;1.40;100.00
45275;BME280;31019;43.780;25.948;2023-02-13T07:14:49;103266.41;;;2.22;100.00
45275;BME280;31019;43.780;25.948;2023-02-13T07:17:27;103270.19;;;2.46;100.00
45275;BME280;31019;43.780;25.948;2023-02-13T07:20:14;103270.28;;;2.15;100.00
45275;BME280;31019;43.780;25.948;2023-02-13T07:22:46;103252.59;;;3.20;100.00
45275;BME280;31019;43.780;25.948;2023-02-13T07:25:35;103254.22;;;2.80;100.00
45275;BME280;31019;43.780;25.948;2023-02-13T08:30:07;103218.00;;;8.39;78.04
45275;BME280;31019;43.780;25.948;2023-02-13T08:32:36;103212.88;;;8.05;75.70
45275;BME280;31019;43.780;25.948;2023-02-13T08:35:08;103213.56;;;8.70;73.89
45275;BME280;31019;43.780;25.948;2023-02-13T08:37:42;103215.09;;;8.42;64.58
45275;BME280;31019;43.780;25.948;2023-02-13T08:43:37;103212.47;;;8.31;63.87
45275;BME280;31019;43.780;25.948;2023-02-13T08:46:21;103212.00;;;8.67;62.17
45275;BME280;31019;43.780;25.948;2023-02-13T08:49:17;103209.53;;;8.45;67.73
45275;BME280;31019;43.780;25.948;2023-02-13T08:51:57;103209.56;;;8.85;63.57
45275;BME280;31019;43.780;25.948;2023-02-13T08:54:49;103195.53;;;8.64;63.48
45275;BME280;31019;43.780;25.948;2023-02-13T08:57:41;103198.97;;;8.55;61.97
45275;BME280;31019;43.780;25.948;2023-02-13T09:03:39;103194.25;;;8.58;61.38
45275;BME280;31019;43.780;25.948;2023-02-13T09:06:33;103198.06;;;7.82;66.63
45275;BME280;31019;43.780;25.948;2023-02-13T09:09:08;103193.72;;;8.64;66.13
45275;BME280;31019;43.780;25.948;2023-02-13T09:11:49;103198.47;;;8.70;64.35
45275;BME280;31019;43.780;25.948;2023-02-13T09:14:44;103193.25;;;6.77;70.61
45275;BME280;31019;43.780;25.948;2023-02-13T09:17:24;103191.13;;;9.34;66.60
45275;BME280;31019;43.780;25.948;2023-02-13T09:20:06;103184.22;;;8.62;65.51
45275;BME280;31019;43.780;25.948;2023-02-13T09:22:50;103181.53;;;8.52;72.44
45275;BME280;31019;43.780;25.948;2023-02-13T09:25:29;103176.75;;;7.19;70.67
45275;BME280;31019;43.780;25.948;2023-02-13T09:31:18;103167.00;;;9.47;65.00
45275;BME280;31019;43.780;25.948;2023-02-13T09:34:02;103172.09;;;10.36;59.42
45275;BME280;31019;43.780;25.948;2023-02-13T09:36:35;103159.41;;;7.26;69.19
45275;BME280;31019;43.780;25.948;2023-02-13T09:39:16;103155.53;;;8.67;73.18
45275;BME280;31019;43.780;25.948;2023-02-13T09:45:17;103146.09;;;10.29;62.08
45275;BME280;31019;43.780;25.948;2023-02-13T09:47:53;103138.09;;;8.64;72.60
45275;BME280;31019;43.780;25.948;2023-02-13T09:50:43;103133.53;;;7.41;83.07
45275;BME280;31019;43.780;25.948;2023-02-13T09:53:37;103130.22;;;8.84;79.35
45275;BME280;31019;43.780;25.948;2023-02-13T09:56:26;103122.78;;;7.32;88.30
45275;BME280;31019;43.780;25.948;2023-02-13T09:59:29;103121.84;;;8.98;85.23
45275;BME280;31019;43.780;25.948;2023-02-13T10:02:13;103112.56;;;8.33;73.18
45275;BME280;31019;43.780;25.948;2023-02-13T10:04:51;103108.16;;;9.90;80.52
45275;BME280;31019;43.780;25.948;2023-02-13T10:07:50;103099.66;;;11.07;70.50
45275;BME280;31019;43.780;25.948;2023-02-13T10:10:29;103096.56;;;6.86;84.45
45275;BME280;31019;43.780;25.948;2023-02-13T10:13:24;103092.06;;;8.04;88.34
45275;BME280;31019;43.780;25.948;2023-02-13T10:16:01;103088.91;;;8.10;95.95
45275;BME280;31019;43.780;25.948;2023-02-13T10:18:44;103080.78;;;8.02;91.44
45275;BME280;31019;43.780;25.948;2023-02-13T10:21:51;103075.06;;;8.27;85.80
45275;BME280;31019;43.780;25.948;2023-02-13T10:24:39;103071.94;;;9.32;88.29
45275;BME280;31019;43.780;25.948;2023-02-13T10:27:22;103065.44;;;8.67;86.31
45275;BME280;31019;43.780;25.948;2023-02-13T10:30:06;103065.97;;;7.48;93.83
45275;BME280;31019;43.780;25.948;2023-02-13T10:33:06;103049.25;;;8.51;86.89
45275;BME280;31019;43.780;25.948;2023-02-13T11:06:57;103019.91;;;9.78;80.36
45275;BME280;31019;43.780;25.948;2023-02-13T11:09:36;103023.59;;;9.95;79.49
45275;BME280;31019;43.780;25.948;2023-02-13T11:12:28;103019.50;;;10.11;91.34
45275;BME280;31019;43.780;25.948;2023-02-13T11:15:28;103019.59;;;8.95;88.00
45275;BME280;31019;43.780;25.948;2023-02-13T11:18:18;103016.50;;;9.20;93.58
45275;BME280;31019;43.780;25.948;2023-02-13T11:21:08;103005.09;;;10.41;85.19
45275;BME280;31019;43.780;25.948;2023-02-13T11:23:54;103006.91;;;10.13;85.86
45275;BME280;31019;43.780;25.948;2023-02-13T11:26:57;103000.56;;;9.49;90.77
45275;BME280;31019;43.780;25.948;2023-02-13T11:29:31;102995.34;;;7.90;100.00
45275;BME280;31019;43.780;25.948;2023-02-13T11:32:20;103004.63;;;8.56;100.00
45275;BME280;31019;43.780;25.948;2023-02-13T11:35:19;102994.78;;;11.27;95.56
45275;BME280;31019;43.780;25.948;2023-02-13T11:44:40;102976.06;;;8.79;100.00
45275;BME280;31019;43.780;25.948;2023-02-13T11:47:28;102971.47;;;10.31;100.00
45275;BME280;31019;43.780;25.948;2023-02-13T11:50:06;102973.84;;;8.93;100.00
45275;BME280;31019;43.780;25.948;2023-02-13T11:53:00;102958.06;;;9.11;100.00
45275;BME280;31019;43.780;25.948;2023-02-13T11:55:45;102961.03;;;10.66;94.66
45275;BME280;31019;43.780;25.948;2023-02-13T11:58:37;102962.91;;;11.09;96.13
45275;BME280;31019;43.780;25.948;2023-02-13T12:01:34;102952.59;;;9.70;100.00
45275;BME280;31019;43.780;25.948;2023-02-13T12:04:06;102947.25;;;10.35;100.00
45275;BME280;31019;43.780;25.948;2023-02-13T12:07:01;102949.56;;;10.47;100.00
45275;BME280;31019;43.780;25.948;2023-02-13T12:09:58;102950.94;;;8.44;100.00
45275;BME280;31019;43.780;25.948;2023-02-13T12:12:39;102937.53;;;9.23;100.00
45275;BME280;31019;43.780;25.948;2023-02-13T12:15:19;102929.59;;;9.13;100.00
45275;BME280;31019;43.780;25.948;2023-02-13T12:18:20;102942.44;;;8.40;100.00
45275;BME280;31019;43.780;25.948;2023-02-13T12:20:52;102932.63;;;10.30;100.00
45275;BME280;31019;43.780;25.948;2023-02-13T12:23:31;102931.69;;;9.94;100.00
45275;BME280;31019;43.780;25.948;2023-02-13T12:26:10;102938.69;;;10.41;100.00
45275;BME280;31019;43.780;25.948;2023-02-13T12:29:07;102928.63;;;9.14;100.00
45275;BME280;31019;43.780;25.948;2023-02-13T12:32:02;102929.19;;;8.89;100.00
45275;BME280;31019;43.780;25.948;2023-02-13T12:35:13;102921.75;;;10.95;100.00
45275;BME280;31019;43.780;25.948;2023-02-13T12:38:01;102930.59;;;8.93;100.00
45275;BME280;31019;43.780;25.948;2023-02-13T12:40:40;102923.41;;;10.25;100.00
45275;BME280;31019;43.780;25.948;2023-02-13T13:42:44;102889.28;;;9.57;100.00
45275;BME280;31019;43.780;25.948;2023-02-13T13:45:41;102884.59;;;9.31;100.00
45275;BME280;31019;43.780;25.948;2023-02-13T13:51:16;102876.63;;;8.84;100.00
45275;BME280;31019;43.780;25.948;2023-02-13T14:03:35;102867.53;;;8.19;100.00
45275;BME280;31019;43.780;25.948;2023-02-13T14:06:21;102866.72;;;8.18;100.00
45275;BME280;31019;43.780;25.948;2023-02-13T14:15:02;102852.31;;;7.82;100.00
45275;BME280;31019;43.780;25.948;2023-02-13T14:20:52;102862.16;;;8.69;100.00
45275;BME280;31019;43.780;25.948;2023-02-13T14:26:52;102858.34;;;8.13;100.00
45275;BME280;31019;43.780;25.948;2023-02-13T14:29:28;102854.75;;;7.64;100.00
45275;BME280;31019;43.780;25.948;2023-02-13T14:32:02;102851.91;;;7.87;100.00
45275;BME280;31019;43.780;25.948;2023-02-13T14:34:55;102857.28;;;7.66;100.00
45275;BME280;31019;43.780;25.948;2023-02-13T14:37:36;102854.59;;;7.56;100.00
45275;BME280;31019;43.780;25.948;2023-02-13T14:43:38;102856.41;;;7.25;100.00
45275;BME280;31019;43.780;25.948;2023-02-13T14:46:30;102860.44;;;7.29;100.00
45275;BME280;31019;43.780;25.948;2023-02-13T14:49:10;102865.34;;;7.03;100.00
45275;BME280;31019;43.780;25.948;2023-02-13T14:51:48;102862.03;;;6.89;100.00
45275;BME280;31019;43.780;25.948;2023-02-13T14:54:31;102856.44;;;6.62;100.00
45275;BME280;31019;43.780;25.948;2023-02-13T15:00:22;102847.16;;;6.68;100.00
45275;BME280;31019;43.780;25.948;2023-02-13T15:06:37;102843.56;;;6.15;100.00
45275;BME280;31019;43.780;25.948;2023-02-13T15:09:33;102846.16;;;6.27;100.00
45275;BME280;31019;43.780;25.948;2023-02-13T15:12:28;102847.03;;;6.16;100.00
45275;BME280;31019;43.780;25.948;2023-02-13T15:15:22;102844.06;;;6.09;100.00
45275;BME280;31019;43.780;25.948;2023-02-13T15:18:08;102846.34;;;5.80;100.00
45275;BME280;31019;43.780;25.948;2023-02-13T15:20:45;102844.22;;;5.74;100.00
45275;BME280;31019;43.780;25.948;2023-02-13T15:23:19;102837.06;;;5.31;100.00
45275;BME280;31019;43.780;25.948;2023-02-13T15:26:03;102837.66;;;5.46;100.00
45275;BME280;31019;43.780;25.948;2023-02-13T15:28:40;102831.44;;;5.24;100.00
45275;BME280;31019;43.780;25.948;2023-02-13T15:31:20;102836.75;;;4.89;100.00
45275;BME280;31019;43.780;25.948;2023-02-13T15:33:50;102821.69;;;4.45;100.00
45275;BME280;31019;43.780;25.948;2023-02-13T15:39:55;102835.59;;;3.99;100.00
45275;BME280;31019;43.780;25.948;2023-02-13T15:43:13;102837.31;;;3.87;100.00
45275;BME280;31019;43.780;25.948;2023-02-13T15:46:20;102836.81;;;3.19;100.00
45275;BME280;31019;43.780;25.948;2023-02-13T15:48:53;102836.69;;;3.08;100.00
45275;BME280;31019;43.780;25.948;2023-02-13T15:51:33;102831.22;;;2.73;100.00
45275;BME280;31019;43.780;25.948;2023-02-13T15:54:21;102836.38;;;2.35;100.00
45275;BME280;31019;43.780;25.948;2023-02-13T15:57:19;102840.28;;;2.42;100.00
45275;BME280;31019;43.780;25.948;2023-02-13T16:00:19;102844.13;;;2.76;100.00
45275;BME280;31019;43.780;25.948;2023-02-13T16:02:57;102845.00;;;2.37;100.00
45275;BME280;31019;43.780;25.948;2023-02-13T16:05:37;102845.34;;;1.91;100.00
45275;BME280;31019;43.780;25.948;2023-02-13T16:08:25;102855.81;;;1.91;100.00
45275;BME280;31019;43.780;25.948;2023-02-13T16:14:14;102859.88;;;1.68;100.00
45275;BME280;31019;43.780;25.948;2023-02-13T16:16:47;102867.66;;;1.55;100.00
45275;BME280;31019;43.780;25.948;2023-02-13T16:19:32;102861.00;;;1.35;100.00
45275;BME280;31019;43.780;25.948;2023-02-13T16:22:04;102869.81;;;1.34;100.00
45275;BME280;31019;43.780;25.948;2023-02-13T16:24:32;102863.25;;;1.27;100.00
45275;BME280;31019;43.780;25.948;2023-02-13T16:26:59;102870.81;;;1.31;100.00
45275;BME280;31019;43.780;25.948;2023-02-13T16:29:26;102862.84;;;1.04;100.00
45275;BME280;31019;43.780;25.948;2023-02-13T16:32:03;102871.19;;;1.11;100.00
45275;BME280;31019;43.780;25.948;2023-02-13T16:34:31;102864.78;;;0.86;100.00
45275;BME280;31019;43.780;25.948;2023-02-13T16:36:58;102867.44;;;0.71;100.00
45275;BME280;31019;43.780;25.948;2023-02-13T16:39:29;102856.84;;;0.88;100.00
45275;BME280;31019;43.780;25.948;2023-02-13T16:41:57;102867.16;;;0.75;100.00
45275;BME280;31019;43.780;25.948;2023-02-13T16:44:26;102871.09;;;0.68;100.00
45275;BME280;31019;43.780;25.948;2023-02-13T16:46:55;102870.41;;;0.34;100.00
45275;BME280;31019;43.780;25.948;2023-02-13T16:49:25;102866.69;;;0.68;100.00
45275;BME280;31019;43.780;25.948;2023-02-13T16:52:15;102858.34;;;0.92;100.00
45275;BME280;31019;43.780;25.948;2023-02-13T16:54:49;102860.31;;;0.58;100.00
45275;BME280;31019;43.780;25.948;2023-02-13T16:57:20;102865.53;;;0.58;100.00
45275;BME280;31019;43.780;25.948;2023-02-13T16:59:57;102859.59;;;0.40;100.00
45275;BME280;31019;43.780;25.948;2023-02-13T17:02:28;102866.94;;;0.34;100.00
45275;BME280;31019;43.780;25.948;2023-02-13T17:04:56;102865.00;;;0.37;100.00
45275;BME280;31019;43.780;25.948;2023-02-13T17:07:29;102861.13;;;-0.03;100.00
45275;BME280;31019;43.780;25.948;2023-02-13T17:10:01;102856.84;;;-0.04;100.00
45275;BME280;31019;43.780;25.948;2023-02-13T17:12:29;102854.34;;;-0.06;100.00
45275;BME280;31019;43.780;25.948;2023-02-13T17:14:57;102857.63;;;-0.18;100.00
45275;BME280;31019;43.780;25.948;2023-02-13T17:17:28;102856.94;;;-0.06;100.00
45275;BME280;31019;43.780;25.948;2023-02-13T17:19:55;102852.34;;;-0.34;100.00
45275;BME280;31019;43.780;25.948;2023-02-13T17:22:29;102843.84;;;-0.37;100.00
45275;BME280;31019;43.780;25.948;2023-02-13T17:24:58;102839.56;;;-0.22;100.00
45275;BME280;31019;43.780;25.948;2023-02-13T17:27:25;102834.94;;;-0.17;100.00
45275;BME280;31019;43.780;25.948;2023-02-13T17:29:52;102830.84;;;-0.55;100.00
45275;BME280;31019;43.780;25.948;2023-02-13T17:32:21;102828.97;;;-0.68;100.00
45275;BME280;31019;43.780;25.948;2023-02-13T17:34:50;102828.16;;;-0.69;100.00
45275;BME280;31019;43.780;25.948;2023-02-13T17:37:19;102827.03;;;-0.81;100.00
45275;BME280;31019;43.780;25.948;2023-02-13T17:39:46;102821.59;;;-0.94;100.00
45275;BME280;31019;43.780;25.948;2023-02-13T17:42:19;102830.84;;;-0.88;100.00